Time;durP1;ratioP1;P1;durP2;ratioP2;P2;SDS_P1;SDS_P2;PMS_P1;PMS_P2;Temp;Humidity;BMP_temperature;BMP_pressure;BME280_temperature;BME280_humidity;BME280_pressure;Samples;Min_cycle;Max_cycle;Signal;HPM_P1;HPM_P2
2022/01/06 00:01:19;;;;;;;17.20;3.25;;;;;;;5.45;75.62;99320.97;5090059;28;20119;-61
2022/01/06 00:03:46;;;;;;;18.13;3.55;;;;;;;5.46;76.27;99337.47;5090192;28;20099;-60
2022/01/06 00:06:13;;;;;;;18.27;3.25;;;;;;;5.47;76.18;99326.13;5090335;28;20820;-60
2022/01/06 00:08:40;;;;;;;14.10;2.45;;;;;;;5.47;76.18;99331.34;5091551;28;20048;-60
2022/01/06 00:11:09;;;;;;;13.38;2.75;;;;;;;5.46;75.75;99338.31;5089671;28;20128;-61
2022/01/06 00:13:54;;;;;;;17.67;3.13;;;;;;;5.48;76.26;99323.44;5089951;28;20139;-62
2022/01/06 00:24:22;;;;;;;12.85;2.30;;;;;;;5.51;75.86;99348.56;5091037;28;20101;-63
2022/01/06 00:26:49;;;;;;;15.32;2.80;;;;;;;5.50;75.70;99349.50;5090967;28;20093;-61
2022/01/06 00:29:16;;;;;;;18.17;2.90;;;;;;;5.49;75.85;99342.56;5090722;28;20130;-61
2022/01/06 00:31:43;;;;;;;12.98;1.98;;;;;;;5.48;75.58;99354.78;5089643;28;20056;-61
2022/01/06 00:34:11;;;;;;;12.80;2.17;;;;;;;5.48;75.64;99359.13;5072936;28;20071;-61
2022/01/06 00:36:38;;;;;;;9.02;2.28;;;;;;;5.46;75.25;99368.81;5090764;28;20055;-61
2022/01/06 00:39:06;;;;;;;7.80;1.83;;;;;;;5.44;75.64;99361.03;5090509;28;20056;-62
2022/01/06 00:41:34;;;;;;;8.73;1.90;;;;;;;5.44;75.76;99366.25;5089300;28;20048;-62
2022/01/06 00:44:03;;;;;;;14.85;2.35;;;;;;;5.43;75.72;99374.16;5090529;28;20052;-62
2022/01/06 00:46:30;;;;;;;14.55;2.00;;;;;;;5.43;75.75;99374.16;5089394;28;20040;-61
2022/01/06 00:48:57;;;;;;;12.65;1.98;;;;;;;5.42;75.71;99382.91;5090434;28;20048;-62
2022/01/06 00:51:23;;;;;;;14.77;2.47;;;;;;;5.40;75.52;99374.28;5090340;28;20048;-61
2022/01/06 00:53:50;;;;;;;8.63;2.03;;;;;;;5.40;75.65;99384.72;5090350;28;20093;-60
2022/01/06 00:56:17;;;;;;;15.07;2.70;;;;;;;5.38;75.80;99389.16;5090634;28;20047;-61
2022/01/06 00:58:43;;;;;;;12.77;1.73;;;;;;;5.37;75.71;99380.47;5090570;28;20052;-62
2022/01/06 01:01:10;;;;;;;14.30;2.83;;;;;;;5.37;75.64;99387.44;5090104;28;20056;-61
2022/01/06 01:03:36;;;;;;;10.98;1.95;;;;;;;5.35;75.64;99398.81;5090613;28;20089;-62
2022/01/06 01:06:03;;;;;;;13.85;2.28;;;;;;;5.35;75.78;99411.84;5090437;28;20708;-62
2022/01/06 01:08:32;;;;;;;9.25;1.90;;;;;;;5.35;75.80;99404.03;5090115;28;20052;-62
2022/01/06 01:11:02;;;;;;;12.85;1.98;;;;;;;5.34;75.81;99419.75;5088884;28;20050;-60
2022/01/06 01:13:30;;;;;;;9.13;2.00;;;;;;;5.35;76.05;99413.63;5089106;28;20795;-63
2022/01/06 01:16:07;;;;;;;7.93;2.58;;;;;;;5.35;75.96;99424.91;5090313;28;20109;-62
2022/01/06 01:18:34;;;;;;;10.32;1.60;;;;;;;5.35;75.67;99424.91;5090048;28;20052;-61
2022/01/06 01:21:01;;;;;;;9.13;1.90;;;;;;;5.35;76.11;99430.13;5090278;28;20052;-60
2022/01/06 01:23:27;;;;;;;9.07;1.98;;;;;;;5.36;76.33;99425.75;5090263;28;20341;-61
2022/01/06 01:25:54;;;;;;;12.60;1.83;;;;;;;5.37;76.29;99427.44;5090122;28;20059;-62
2022/01/06 01:28:21;;;;;;;11.40;1.88;;;;;;;5.38;76.63;99443.97;5089156;28;20048;-61
2022/01/06 01:31:02;;;;;;;9.95;1.50;;;;;;;5.40;76.88;99449.97;5090136;28;20101;-60
2022/01/06 01:33:31;;;;;;;5.03;1.33;;;;;;;5.43;76.79;99462.91;5093659;28;20051;-61
2022/01/06 01:35:57;;;;;;;6.80;1.45;;;;;;;5.46;76.90;99452.34;5092820;28;20090;-63
2022/01/06 01:38:24;;;;;;;9.05;1.50;;;;;;;5.47;76.65;99454.03;5094130;28;20050;-63
2022/01/06 01:40:51;;;;;;;8.65;1.40;;;;;;;5.51;76.39;99458.22;5093652;28;20101;-61
2022/01/06 01:43:17;;;;;;;8.10;1.60;;;;;;;5.53;76.49;99461.59;5093758;28;20554;-61
2022/01/06 01:45:46;;;;;;;7.22;2.03;;;;;;;5.53;76.17;99461.59;5093968;28;20109;-61
2022/01/06 01:48:21;;;;;;;8.82;1.83;;;;;;;5.56;76.30;99468.47;5092438;28;20083;-61
2022/01/06 01:50:47;;;;;;;11.25;1.80;;;;;;;5.55;75.93;99480.69;5092168;28;20531;-60
2022/01/06 01:53:14;;;;;;;5.50;1.30;;;;;;;5.55;75.74;99485.91;5093709;28;20054;-61
2022/01/06 01:55:41;;;;;;;9.32;2.20;;;;;;;5.53;75.68;99487.72;5093916;28;20048;-62
2022/01/06 01:58:08;;;;;;;7.68;1.95;;;;;;;5.52;75.34;99495.59;5093570;28;20055;-61
2022/01/06 02:00:35;;;;;;;6.78;1.75;;;;;;;5.49;75.64;99499.19;5093671;28;20048;-60
2022/01/06 02:03:02;;;;;;;8.95;1.65;;;;;;;5.46;75.52;99500.16;5092430;28;20110;-63
2022/01/06 02:05:29;;;;;;;12.05;1.95;;;;;;;5.45;75.49;99505.44;5093538;28;20079;-60
2022/01/06 02:08:00;;;;;;;9.90;2.10;;;;;;;5.44;75.62;99508.97;5093753;28;20510;-62
2022/01/06 02:10:28;;;;;;;11.35;2.25;;;;;;;5.43;75.86;99517.72;5093705;28;20051;-63
2022/01/06 02:12:57;;;;;;;10.60;1.98;;;;;;;5.42;75.88;99514.25;5093021;28;20059;-61
2022/01/06 02:15:24;;;;;;;12.13;2.08;;;;;;;5.41;75.98;99512.56;5092098;28;20047;-62
2022/01/06 02:17:51;;;;;;;9.70;2.08;;;;;;;5.42;76.10;99514.25;5093449;28;20052;-62
2022/01/06 02:20:20;;;;;;;11.48;2.53;;;;;;;5.41;75.56;99516.91;5091950;28;20105;-62
2022/01/06 02:22:48;;;;;;;7.32;1.67;;;;;;;5.43;76.00;99525.56;5092159;28;20048;-62
2022/01/06 02:25:26;;;;;;;8.35;2.10;;;;;;;5.39;75.23;99540.50;5092151;28;20485;-61
2022/01/06 02:27:54;;;;;;;10.90;1.88;;;;;;;5.41;75.82;99537.78;5093103;28;20052;-62
2022/01/06 02:30:23;;;;;;;12.05;2.67;;;;;;;5.40;75.96;99538.72;5092832;28;20047;-61
2022/01/06 02:32:51;;;;;;;13.65;2.42;;;;;;;5.40;75.77;99539.56;5093567;28;20102;-62
2022/01/06 02:35:21;;;;;;;10.23;2.40;;;;;;;5.39;75.31;99540.50;5091946;28;20044;-62
2022/01/06 02:37:48;;;;;;;14.30;2.65;;;;;;;5.41;75.58;99548.25;5091813;28;20078;-63
2022/01/06 02:40:20;;;;;;;12.05;2.40;;;;;;;5.39;75.22;99542.25;5092888;28;20044;-60
2022/01/06 02:42:50;;;;;;;12.70;1.83;;;;;;;5.38;74.94;99551.00;5092951;28;20056;-61
2022/01/06 02:45:19;;;;;;;14.07;2.30;;;;;;;5.35;74.79;99554.56;5091772;28;20059;-62
2022/01/06 02:47:48;;;;;;;15.20;2.47;;;;;;;5.33;74.80;99562.47;5091703;28;20086;-60
2022/01/06 02:50:16;;;;;;;11.93;2.30;;;;;;;5.29;74.73;99563.47;5091135;28;20101;-61
2022/01/06 02:52:43;;;;;;;9.00;1.92;;;;;;;5.26;74.88;99568.81;5091326;28;20052;-62
2022/01/06 02:55:14;;;;;;;7.88;1.67;;;;;;;5.22;75.08;99573.31;5092624;28;20501;-62
2022/01/06 02:57:42;;;;;;;13.23;1.88;;;;;;;5.21;75.24;99573.38;5092234;28;20056;-61
2022/01/06 03:00:12;;;;;;;11.98;2.08;;;;;;;5.18;75.18;99576.06;5092495;28;20105;-61
2022/01/06 03:02:41;;;;;;;11.35;2.00;;;;;;;5.19;75.57;99577.78;5092532;28;20048;-61
2022/01/06 03:05:08;;;;;;;10.27;2.47;;;;;;;5.18;75.91;99581.28;5091228;28;20060;-60
2022/01/06 03:07:35;;;;;;;12.60;1.98;;;;;;;5.18;75.60;99582.16;5092106;28;20078;-61
2022/01/06 03:10:06;;;;;;;8.00;1.83;;;;;;;5.17;75.36;99596.13;5091951;28;20105;-61
2022/01/06 03:12:39;;;;;;;14.82;2.13;;;;;;;5.17;75.16;99590.03;5092471;28;20102;-61
2022/01/06 03:15:09;;;;;;;10.55;1.75;;;;;;;5.16;74.82;99604.00;5092421;28;20060;-60
2022/01/06 03:17:37;;;;;;;10.90;2.30;;;;;;;5.15;74.98;99607.50;5092287;28;20059;-61
2022/01/06 03:20:06;;;;;;;10.48;1.73;;;;;;;5.13;75.08;99604.09;5091859;28;20052;-60
2022/01/06 03:22:33;;;;;;;12.43;2.10;;;;;;;5.10;75.22;99602.47;5090704;28;20097;-61
2022/01/06 03:25:00;;;;;;;12.38;2.28;;;;;;;5.08;75.07;99602.50;5092182;28;20101;-61
2022/01/06 03:27:26;;;;;;;16.30;2.65;;;;;;;5.07;75.09;99607.78;5092302;28;20063;-61
2022/01/06 03:29:56;;;;;;;14.45;1.90;;;;;;;5.06;75.24;99613.91;5091386;28;20488;-61
2022/01/06 03:32:23;;;;;;;12.73;2.15;;;;;;;5.04;75.02;99611.34;5092250;28;20161;-64
2022/01/06 03:34:50;;;;;;;8.75;1.90;;;;;;;5.04;75.17;99616.56;5091662;28;20044;-61
2022/01/06 03:37:17;;;;;;;9.55;1.65;;;;;;;5.01;75.21;99616.69;5091823;28;20411;-61
2022/01/06 03:39:44;;;;;;;12.98;2.47;;;;;;;5.00;75.33;99622.81;5091652;28;21008;-61
2022/01/06 03:42:12;;;;;;;9.02;2.25;;;;;;;5.00;75.19;99620.19;5091787;28;20062;-63
2022/01/06 03:44:38;;;;;;;8.75;2.33;;;;;;;5.00;75.10;99632.38;5090339;28;20043;-61
2022/01/06 03:47:06;;;;;;;6.85;1.75;;;;;;;4.96;74.94;99626.44;5091699;28;20515;-63
2022/01/06 03:49:33;;;;;;;13.70;2.70;;;;;;;4.95;75.04;99636.03;5089942;28;20056;-63
2022/01/06 03:52:00;;;;;;;9.23;1.75;;;;;;;4.92;74.98;99637.88;5091239;28;20052;-62
2022/01/06 03:54:27;;;;;;;9.70;1.98;;;;;;;4.91;74.95;99639.66;5091410;28;20105;-61
2022/01/06 03:56:54;;;;;;;7.55;1.67;;;;;;;4.90;74.80;99644.94;5090204;28;20051;-60
2022/01/06 03:59:20;;;;;;;8.00;1.70;;;;;;;4.87;74.63;99640.69;5090976;28;20052;-63
2022/01/06 04:01:47;;;;;;;9.98;2.38;;;;;;;4.83;74.75;99642.50;5091160;28;20690;-61
2022/01/06 04:04:14;;;;;;;15.57;2.58;;;;;;;4.80;74.61;99637.44;5091108;28;20052;-62
2022/01/06 04:06:41;;;;;;;10.18;2.20;;;;;;;4.79;74.69;99646.13;5091339;28;20105;-61
2022/01/06 04:09:09;;;;;;;14.10;2.55;;;;;;;4.76;74.56;99641.06;5091199;28;20055;-62
2022/01/06 04:11:36;;;;;;;9.85;1.58;;;;;;;4.74;74.66;99648.06;5089784;28;20090;-64
2022/01/06 04:14:02;;;;;;;8.73;2.22;;;;;;;4.71;74.76;99653.38;5090862;28;20098;-62
2022/01/06 04:16:36;;;;;;;9.68;1.60;;;;;;;4.70;74.54;99656.88;5090910;28;20481;-62
2022/01/06 04:19:03;;;;;;;9.85;1.70;;;;;;;4.68;74.78;99654.31;5089573;28;20101;-64
2022/01/06 04:21:30;;;;;;;8.90;1.73;;;;;;;4.66;74.98;99657.91;5090694;28;20048;-61
2022/01/06 04:23:57;;;;;;;13.05;2.00;;;;;;;4.64;74.80;99660.56;5091184;28;20052;-60
2022/01/06 04:26:23;;;;;;;14.07;1.52;;;;;;;4.63;74.84;99663.25;5090824;28;20082;-62
2022/01/06 04:28:50;;;;;;;9.32;1.50;;;;;;;4.62;74.86;99669.34;5090870;28;20056;-62
2022/01/06 04:31:17;;;;;;;13.18;1.92;;;;;;;4.61;75.05;99670.25;5090314;28;20489;-61
2022/01/06 04:33:44;;;;;;;12.68;2.03;;;;;;;4.59;74.85;99666.84;5090564;28;20151;-61
2022/01/06 04:36:10;;;;;;;12.63;1.73;;;;;;;4.57;74.91;99670.34;5090879;28;20044;-61
2022/01/06 04:38:37;;;;;;;12.40;2.40;;;;;;;4.57;75.11;99672.13;5090922;28;20097;-61
2022/01/06 04:41:04;;;;;;;11.63;2.47;;;;;;;4.56;75.09;99675.59;5090526;28;20108;-62
2022/01/06 04:43:31;;;;;;;10.57;2.55;;;;;;;4.57;75.46;99683.38;5089327;28;20419;-61
2022/01/06 04:45:59;;;;;;;13.90;2.38;;;;;;;4.56;75.72;99684.28;5090251;28;20048;-61
2022/01/06 04:48:25;;;;;;;11.70;2.42;;;;;;;4.58;75.60;99681.63;5090883;28;20051;-60
2022/01/06 04:50:52;;;;;;;9.93;2.13;;;;;;;4.59;75.74;99685.09;5089996;28;20550;-61
2022/01/06 04:53:18;;;;;;;14.30;2.58;;;;;;;4.59;75.93;99685.94;5089312;28;20052;-63
2022/01/06 04:55:45;;;;;;;6.95;2.30;;;;;;;4.62;75.82;99695.41;5089323;28;20096;-61
2022/01/06 04:58:11;;;;;;;12.00;2.50;;;;;;;4.64;76.03;99698.81;5089004;28;20093;-62
2022/01/06 05:00:38;;;;;;;13.25;2.50;;;;;;;4.65;76.01;99709.22;5089952;28;20097;-60
2022/01/06 05:03:05;;;;;;;10.82;2.67;;;;;;;4.66;75.80;99712.66;5090416;28;20090;-62
2022/01/06 05:05:31;;;;;;;14.82;2.67;;;;;;;4.67;75.54;99714.34;5090340;28;20072;-62
2022/01/06 05:07:58;;;;;;;13.73;3.00;;;;;;;4.66;75.65;99717.88;5089993;28;20051;-61
2022/01/06 05:10:24;;;;;;;14.82;2.78;;;;;;;4.65;75.44;99718.78;5089759;28;20048;-61
2022/01/06 05:12:51;;;;;;;14.55;2.30;;;;;;;4.64;75.69;99720.53;5090082;28;20109;-62
2022/01/06 05:15:17;;;;;;;10.20;1.98;;;;;;;4.64;75.94;99727.50;5090105;28;20085;-62
2022/01/06 05:17:44;;;;;;;17.23;3.22;;;;;;;4.63;75.97;99731.03;5088740;28;20047;-61
2022/01/06 05:20:11;;;;;;;17.38;2.55;;;;;;;4.63;75.86;99734.47;5088872;28;20109;-61
2022/01/06 05:22:43;;;;;;;13.07;2.65;;;;;;;4.63;75.87;99738.84;5088826;28;20052;-61
2022/01/06 05:25:11;;;;;;;18.17;3.45;;;;;;;4.64;76.14;99738.78;5088913;28;20044;-61
2022/01/06 05:27:38;;;;;;;11.07;1.92;;;;;;;4.64;75.98;99740.53;5088645;28;20048;-62
2022/01/06 05:30:06;;;;;;;15.65;3.35;;;;;;;4.64;75.75;99736.16;5088639;28;20098;-60
2022/01/06 05:32:33;;;;;;;13.50;2.20;;;;;;;4.64;75.52;99736.16;5089162;28;20096;-61
2022/01/06 05:35:00;;;;;;;9.32;2.38;;;;;;;4.63;75.46;99738.84;5090037;28;20052;-62
2022/01/06 05:37:26;;;;;;;15.93;2.55;;;;;;;4.61;75.27;99741.50;5088558;28;20097;-61
2022/01/06 05:39:53;;;;;;;14.52;2.90;;;;;;;4.59;75.22;99735.47;5089681;28;20044;-61
2022/01/06 05:42:19;;;;;;;12.55;3.60;;;;;;;4.57;74.82;99732.91;5089903;28;20048;-60
2022/01/06 05:44:46;;;;;;;19.42;3.95;;;;;;;4.55;75.05;99742.53;5089922;28;20044;-61
2022/01/06 05:47:13;;;;;;;7.30;2.90;;;;;;;4.53;75.02;99748.72;5089883;28;20055;-61
2022/01/06 05:49:39;;;;;;;17.63;3.13;;;;;;;4.50;74.86;99754.88;5089878;28;20091;-62
2022/01/06 05:52:06;;;;;;;8.55;2.50;;;;;;;4.50;74.85;99754.00;5088619;28;20073;-62
2022/01/06 05:54:32;;;;;;;10.52;3.15;;;;;;;4.48;74.65;99751.44;5089754;28;20052;-60
2022/01/06 05:57:00;;;;;;;9.05;3.05;;;;;;;4.46;74.86;99752.41;5089555;28;20048;-62
2022/01/06 05:59:28;;;;;;;11.85;3.25;;;;;;;4.43;74.75;99748.16;5088373;28;20051;-61
2022/01/06 06:01:55;;;;;;;14.82;3.42;;;;;;;4.41;74.67;99752.56;5088494;28;20048;-62
2022/01/06 06:04:22;;;;;;;10.15;2.95;;;;;;;4.38;74.79;99757.88;5088286;28;20044;-60
2022/01/06 06:06:48;;;;;;;8.75;2.58;;;;;;;4.35;74.50;99756.22;5089718;28;20131;-63
2022/01/06 06:09:15;;;;;;;6.90;2.80;;;;;;;4.33;74.51;99760.59;5089490;28;20794;-61
2022/01/06 06:11:42;;;;;;;8.52;2.00;;;;;;;4.30;74.63;99755.50;5088187;28;20048;-61
2022/01/06 06:14:08;;;;;;;12.38;2.63;;;;;;;4.29;74.63;99761.59;5089554;28;20048;-62
2022/01/06 06:16:35;;;;;;;9.20;2.30;;;;;;;4.26;74.70;99762.56;5089286;28;20090;-62
2022/01/06 06:19:02;;;;;;;6.78;2.20;;;;;;;4.27;74.74;99766.03;5090539;28;20139;-60
2022/01/06 06:21:29;;;;;;;6.43;2.03;;;;;;;4.24;74.62;99766.97;5093045;28;20044;-61
2022/01/06 06:23:55;;;;;;;3.78;1.67;;;;;;;4.24;74.56;99766.97;5093001;28;20044;-62
2022/01/06 06:26:22;;;;;;;6.50;2.08;;;;;;;4.24;74.56;99776.53;5093418;28;20074;-60
2022/01/06 06:28:48;;;;;;;4.53;1.55;;;;;;;4.23;74.50;99783.47;5093578;28;20074;-61
2022/01/06 06:31:15;;;;;;;5.18;1.85;;;;;;;4.22;74.58;99778.34;5093378;28;20048;-61
2022/01/06 06:33:42;;;;;;;6.70;1.48;;;;;;;4.21;74.38;99779.22;5093136;28;20058;-61
2022/01/06 06:36:08;;;;;;;5.45;1.40;;;;;;;4.22;74.38;99786.16;5093308;28;20048;-63
2022/01/06 06:38:35;;;;;;;5.38;1.60;;;;;;;4.21;74.16;99787.03;5092854;28;20052;-61
2022/01/06 06:41:02;;;;;;;3.15;1.33;;;;;;;4.20;74.05;99794.03;5092739;28;20044;-61
2022/01/06 06:43:28;;;;;;;2.88;1.33;;;;;;;4.19;74.04;99797.53;5092843;28;20097;-61
2022/01/06 06:45:55;;;;;;;7.15;1.70;;;;;;;4.19;74.01;99805.34;5092773;28;20055;-62
2022/01/06 06:48:22;;;;;;;6.68;1.45;;;;;;;4.17;74.16;99804.53;5092766;28;20059;-61
2022/01/06 06:50:49;;;;;;;7.40;1.95;;;;;;;4.16;73.84;99805.44;5092452;28;20047;-61
2022/01/06 06:53:15;;;;;;;5.07;1.48;;;;;;;4.15;73.91;99814.16;5092534;28;20055;-61
2022/01/06 06:55:42;;;;;;;5.25;1.30;;;;;;;4.12;74.25;99815.06;5093213;28;20048;-61
2022/01/06 06:58:09;;;;;;;2.80;1.10;;;;;;;4.12;74.15;99822.88;5091488;28;20194;-61
2022/01/06 07:00:35;;;;;;;5.70;1.42;;;;;;;4.12;74.12;99827.25;5092376;28;20066;-64
2022/01/06 07:03:02;;;;;;;9.68;1.30;;;;;;;4.11;74.17;99833.38;5092690;28;20048;-61
2022/01/06 07:05:29;;;;;;;3.33;1.23;;;;;;;4.10;73.94;99837.72;5092627;28;20059;-63
2022/01/06 07:07:56;;;;;;;5.75;1.20;;;;;;;4.09;73.90;99838.63;5092541;28;20051;-60
2022/01/06 07:10:22;;;;;;;4.00;1.20;;;;;;;4.08;73.96;99836.06;5092140;28;20052;-61
2022/01/06 07:12:49;;;;;;;7.03;1.70;;;;;;;4.07;73.84;99842.16;5074255;28;20564;-61
2022/01/06 07:15:17;;;;;;;5.47;1.13;;;;;;;4.05;74.08;99842.22;5092441;28;20097;-63
2022/01/06 07:17:44;;;;;;;3.15;1.17;;;;;;;4.04;74.09;99846.56;5092372;28;20127;-61
2022/01/06 07:20:11;;;;;;;2.42;1.30;;;;;;;4.03;74.15;99859.63;5091759;28;20106;-61
2022/01/06 07:22:38;;;;;;;6.82;1.30;;;;;;;4.02;74.18;99856.19;5091621;28;20048;-61
2022/01/06 07:25:06;;;;;;;4.05;1.27;;;;;;;4.02;73.72;99860.53;5091128;28;20056;-62
2022/01/06 07:27:33;;;;;;;2.92;1.25;;;;;;;4.01;74.02;99866.63;5092304;28;20041;-61
2022/01/06 07:29:59;;;;;;;6.60;1.27;;;;;;;3.99;74.14;99861.47;5091475;28;20070;-60
2022/01/06 07:32:26;;;;;;;2.72;1.25;;;;;;;3.99;73.95;99879.69;5091947;28;20098;-62
2022/01/06 07:34:55;;;;;;;5.88;1.35;;;;;;;3.98;74.16;99874.53;5091961;28;20066;-62
2022/01/06 07:37:22;;;;;;;6.40;1.38;;;;;;;3.98;74.27;99888.41;5091640;28;20109;-62
2022/01/06 07:39:48;;;;;;;6.93;1.65;;;;;;;3.97;74.06;99889.31;5091552;28;20455;-62
2022/01/06 07:42:15;;;;;;;4.43;1.13;;;;;;;3.95;74.26;99888.50;5091586;28;20450;-61
2022/01/06 07:44:46;;;;;;;4.75;1.50;;;;;;;3.95;74.38;99887.63;5091481;28;20075;-61
2022/01/06 07:47:13;;;;;;;6.35;1.35;;;;;;;3.94;74.27;99892.00;5091570;28;20048;-62
2022/01/06 07:49:40;;;;;;;3.88;1.70;;;;;;;3.92;74.00;99901.59;5091731;28;20048;-61
2022/01/06 07:52:07;;;;;;;10.93;1.95;;;;;;;3.93;74.13;99905.94;5091128;28;20051;-62
2022/01/06 07:54:33;;;;;;;7.78;1.50;;;;;;;3.90;74.38;99914.66;5091244;28;20094;-61
2022/01/06 07:57:01;;;;;;;6.03;1.98;;;;;;;3.91;74.02;99918.13;5090323;28;20127;-63
2022/01/06 07:59:27;;;;;;;7.50;1.50;;;;;;;3.90;74.33;99919.03;5091087;28;20048;-60
2022/01/06 08:01:54;;;;;;;6.25;1.67;;;;;;;3.89;74.36;99919.94;5091101;28;20052;-60
2022/01/06 08:04:21;;;;;;;8.70;1.77;;;;;;;3.88;74.59;99918.19;5091293;28;20152;-61
2022/01/06 08:06:47;;;;;;;7.32;2.00;;;;;;;3.87;74.46;99924.31;5091373;28;20500;-61
2022/01/06 08:09:14;;;;;;;6.10;2.10;;;;;;;3.85;74.51;99926.09;5090951;28;20048;-60
2022/01/06 08:11:41;;;;;;;7.72;1.75;;;;;;;3.83;74.30;99920.06;5091225;28;20078;-61
2022/01/06 08:14:07;;;;;;;5.03;1.92;;;;;;;3.81;74.51;99933.13;5090979;28;20052;-61
2022/01/06 08:16:34;;;;;;;9.07;1.67;;;;;;;3.77;74.53;99936.69;5090836;28;20044;-61
2022/01/06 08:19:00;;;;;;;11.43;1.75;;;;;;;3.75;74.87;99948.91;5091159;28;20066;-60
2022/01/06 08:21:27;;;;;;;11.90;2.30;;;;;;;3.73;74.66;99951.56;5090719;28;20106;-62
2022/01/06 08:23:54;;;;;;;6.45;2.30;;;;;;;3.70;74.59;99943.81;5091082;28;20105;-60
2022/01/06 08:26:20;;;;;;;6.60;1.70;;;;;;;3.69;75.52;99949.94;5090984;28;20043;-61
2022/01/06 08:28:47;;;;;;;10.40;1.92;;;;;;;3.69;75.41;99959.47;5090146;28;20048;-62
2022/01/06 08:31:16;;;;;;;6.53;2.00;;;;;;;3.69;75.70;99954.25;5090822;28;20044;-62
2022/01/06 08:33:45;;;;;;;10.25;1.90;;;;;;;3.70;75.52;99962.03;5090649;28;20056;-62
2022/01/06 08:36:12;;;;;;;7.65;2.33;;;;;;;3.72;75.69;99960.28;5088353;28;20047;-61
2022/01/06 08:38:38;;;;;;;8.55;2.10;;;;;;;3.73;75.53;99964.56;5090166;28;20149;-61
2022/01/06 08:41:05;;;;;;;7.43;2.10;;;;;;;3.75;75.70;99970.63;5090168;28;20109;-61
2022/01/06 08:43:32;;;;;;;14.75;2.70;;;;;;;3.77;75.68;99974.03;5090048;28;20454;-61
2022/01/06 08:45:59;;;;;;;10.73;2.80;;;;;;;3.81;75.84;99971.34;5090836;28;20055;-61
2022/01/06 08:48:27;;;;;;;15.23;2.38;;;;;;;3.82;76.01;99968.72;5090615;28;20067;-62
2022/01/06 08:50:54;;;;;;;7.95;1.73;;;;;;;3.85;76.11;99971.22;5088759;28;20385;-61
2022/01/06 08:53:22;;;;;;;5.63;1.60;;;;;;;3.87;75.97;99979.84;5090483;28;20081;-60
2022/01/06 08:55:49;;;;;;;10.38;2.20;;;;;;;3.89;76.11;99980.66;5089273;28;20511;-60
2022/01/06 08:58:17;;;;;;;12.85;2.03;;;;;;;3.91;76.34;99985.84;5090410;28;20055;-61
2022/01/06 09:00:45;;;;;;;10.50;2.40;;;;;;;3.94;76.04;99980.56;5088901;28;20097;-61
2022/01/06 09:03:11;;;;;;;8.55;1.83;;;;;;;3.97;76.16;99988.28;5089218;28;20048;-61
2022/01/06 09:05:38;;;;;;;13.32;2.08;;;;;;;4.00;76.38;99980.38;5090175;28;20051;-62
2022/01/06 09:08:06;;;;;;;11.68;3.10;;;;;;;4.02;76.24;99977.75;5090350;28;20048;-61
2022/01/06 09:10:37;;;;;;;8.38;2.03;;;;;;;4.04;76.41;99982.00;5088712;28;20058;-61
2022/01/06 09:13:24;;;;;;;19.80;3.58;;;;;;;4.07;76.24;99981.06;5088950;28;20571;-62
2022/01/06 09:15:50;;;;;;;13.65;2.53;;;;;;;4.09;76.18;99992.31;5090436;28;20052;-62
2022/01/06 09:18:17;;;;;;;14.88;2.83;;;;;;;4.11;76.16;99997.50;5090353;28;20047;-61
2022/01/06 09:20:43;;;;;;;13.60;2.70;;;;;;;4.13;76.47;100000.91;5089929;28;20052;-61
2022/01/06 09:23:10;;;;;;;18.08;3.17;;;;;;;4.13;76.23;99999.16;5090126;28;20048;-61
2022/01/06 09:25:36;;;;;;;14.65;2.55;;;;;;;4.14;76.19;99994.78;5090091;28;20063;-62
2022/01/06 09:28:03;;;;;;;19.23;2.90;;;;;;;4.16;76.05;100001.66;5090059;28;20044;-60
2022/01/06 09:30:30;;;;;;;16.15;3.67;;;;;;;4.19;76.19;99999.88;5090007;28;20047;-60
2022/01/06 09:32:56;;;;;;;14.93;3.10;;;;;;;4.19;76.52;100005.09;5090145;28;20142;-60
2022/01/06 09:35:23;;;;;;;10.68;3.10;;;;;;;4.21;76.43;100008.50;5088773;28;20048;-61
2022/01/06 09:37:50;;;;;;;22.35;3.13;;;;;;;4.23;76.59;100010.19;5089968;28;20454;-61
2022/01/06 09:40:16;;;;;;;16.67;2.78;;;;;;;4.24;76.54;100009.31;5089937;28;20052;-61
2022/01/06 09:42:43;;;;;;;14.90;3.55;;;;;;;4.26;76.40;100012.72;5090013;28;20105;-60
2022/01/06 09:45:11;;;;;;;20.65;2.75;;;;;;;4.28;76.47;100021.34;5090027;28;20121;-60
2022/01/06 09:47:39;;;;;;;17.17;3.30;;;;;;;4.29;76.67;100017.84;5088625;28;20052;-61
2022/01/06 09:50:09;;;;;;;14.80;3.13;;;;;;;4.33;76.87;100018.59;5088283;28;20067;-61
2022/01/06 09:52:36;;;;;;;13.77;2.83;;;;;;;4.36;76.75;100012.47;5088495;28;20510;-61
2022/01/06 09:55:04;;;;;;;21.15;3.63;;;;;;;4.40;76.79;100024.50;5092591;28;20052;-60
2022/01/06 09:57:31;;;;;;;10.82;3.28;;;;;;;4.46;76.80;100023.50;5093827;28;20083;-61
2022/01/06 09:59:58;;;;;;;24.30;3.38;;;;;;;4.48;76.97;100022.56;5093331;28;20125;-60
2022/01/06 10:02:33;;;;;;;17.30;4.35;;;;;;;4.50;75.55;100025.13;5093716;28;20051;-60
2022/01/06 10:05:01;;;;;;;15.00;3.72;;;;;;;4.55;76.59;100024.09;5093530;28;20052;-60
2022/01/06 10:07:43;;;;;;;9.52;3.28;;;;;;;4.55;75.49;100034.53;5092069;28;20056;-61
2022/01/06 10:10:12;;;;;;;25.90;3.47;;;;;;;4.60;76.10;100033.56;5093425;28;20142;-62
2022/01/06 10:12:40;;;;;;;20.77;4.47;;;;;;;4.62;76.50;100030.00;5093285;28;20052;-61
2022/01/06 10:15:19;;;;;;;12.75;3.80;;;;;;;4.61;75.37;100032.66;5092204;28;20458;-61
2022/01/06 10:17:46;;;;;;;15.43;3.88;;;;;;;4.65;76.66;100024.72;5092510;28;20098;-62
2022/01/06 10:20:19;;;;;;;15.27;3.92;;;;;;;4.65;76.15;100026.44;5093548;28;20056;-61
2022/01/06 10:22:48;;;;;;;12.68;3.60;;;;;;;4.69;76.73;100025.47;5093458;28;20089;-63
2022/01/06 10:25:17;;;;;;;14.93;4.03;;;;;;;4.73;77.01;100024.47;5092024;28;20492;-60
2022/01/06 10:27:49;;;;;;;15.02;3.75;;;;;;;4.77;77.04;100030.44;5091607;28;20052;-61
2022/01/06 10:30:16;;;;;;;17.90;3.35;;;;;;;4.82;77.04;100025.94;5093177;28;20058;-61
2022/01/06 10:32:43;;;;;;;16.48;3.75;;;;;;;4.85;77.10;100030.25;5093398;28;20051;-61
2022/01/06 10:35:15;;;;;;;13.70;3.20;;;;;;;4.89;77.00;100027.50;5093203;28;20055;-61
2022/01/06 10:37:43;;;;;;;13.23;3.30;;;;;;;4.93;76.75;100025.66;5090117;28;20044;-61
2022/01/06 10:40:23;;;;;;;25.83;4.22;;;;;;;4.95;75.31;100029.94;5090767;28;20055;-62
2022/01/06 10:42:53;;;;;;;19.25;3.90;;;;;;;5.01;76.63;100031.50;5091577;28;20056;-61
2022/01/06 10:45:25;;;;;;;17.48;3.45;;;;;;;5.06;76.84;100028.75;5091698;28;20056;-61
2022/01/06 10:47:54;;;;;;;17.75;4.03;;;;;;;5.10;76.87;100027.78;5091277;28;20100;-62
2022/01/06 10:50:22;;;;;;;16.08;4.35;;;;;;;5.14;76.89;100023.31;5090708;28;20044;-62
2022/01/06 10:52:53;;;;;;;20.02;3.80;;;;;;;5.18;76.62;100027.53;5092150;28;20056;-60
2022/01/06 10:55:32;;;;;;;18.50;4.13;;;;;;;5.19;75.03;100027.50;5092422;28;20480;-60
2022/01/06 10:58:02;;;;;;;16.63;3.97;;;;;;;5.28;77.39;100039.41;5091026;28;20048;-61
2022/01/06 11:00:30;;;;;;;15.82;3.50;;;;;;;5.34;77.90;100031.38;5091650;28;20052;-60
2022/01/06 11:03:11;;;;;;;24.92;4.28;;;;;;;5.38;75.56;100032.13;5092325;28;20052;-61
2022/01/06 11:05:42;;;;;;;16.75;3.70;;;;;;;5.47;76.25;100025.78;5091964;28;20080;-60
2022/01/06 11:08:10;;;;;;;25.02;3.67;;;;;;;5.54;77.20;100023.84;5091154;28;20044;-61
2022/01/06 11:10:40;;;;;;;17.48;4.82;;;;;;;5.60;77.46;100032.31;5091270;28;20482;-60
2022/01/06 11:13:06;;;;;;;15.95;3.78;;;;;;;5.66;78.21;100031.28;5092092;28;20052;-61
2022/01/06 11:15:33;;;;;;;15.68;3.97;;;;;;;5.76;78.90;100029.22;5091924;28;20056;-62
2022/01/06 11:18:01;;;;;;;19.67;4.25;;;;;;;5.87;79.88;100019.25;5091954;28;20105;-61
2022/01/06 11:20:29;;;;;;;13.27;3.88;;;;;;;6.05;80.92;100026.59;5091498;28;20105;-62
2022/01/06 11:22:58;;;;;;;25.75;4.70;;;;;;;6.29;81.98;100026.63;5090695;28;20048;-61
2022/01/06 11:25:29;;;;;;;26.42;4.20;;;;;;;6.59;81.92;100023.84;5090636;28;20104;-62
2022/01/06 11:28:07;;;;;;;15.07;3.13;;;;;;;6.98;81.98;100028.50;5091556;28;20051;-62
2022/01/06 11:30:40;;;;;;;15.43;3.38;;;;;;;7.50;84.34;100031.78;5090249;28;20078;-63
2022/01/06 11:33:07;;;;;;;13.18;3.05;;;;;;;8.05;87.43;100023.44;5092079;28;20050;-61
2022/01/06 11:35:46;;;;;;;13.70;3.38;;;;;;;8.66;83.86;100031.34;5091806;28;20101;-61
2022/01/06 11:38:15;;;;;;;20.27;3.28;;;;;;;9.27;86.95;100031.22;5091493;28;20397;-61
2022/01/06 11:40:44;;;;;;;16.63;3.22;;;;;;;9.78;84.08;100036.69;5090540;28;20541;-61
2022/01/06 11:43:14;;;;;;;17.15;3.67;;;;;;;10.19;81.42;100036.44;5090789;28;20059;-62
2022/01/06 11:45:41;;;;;;;14.35;3.78;;;;;;;10.43;77.16;100032.56;5091735;28;20059;-61